Time;durP1;ratioP1;P1;durP2;ratioP2;P2;SDS_P1;SDS_P2;PMS_P1;PMS_P2;Temp;Humidity;BMP_temperature;BMP_pressure;BME280_temperature;BME280_humidity;BME280_pressure;Samples;Min_cycle;Max_cycle;Signal;HPM_P1;HPM_P2
2023/01/30 00:01:31;;;;;;;37.43;20.53;;;;;;;0.27;100.00;99546.97;5084684;28;20199;-79
2023/01/30 00:03:59;;;;;;;37.20;20.10;;;;;;;0.26;100.00;99527.00;5091507;28;20220;-79
2023/01/30 00:06:28;;;;;;;34.17;19.07;;;;;;;0.06;100.00;99509.09;5086487;28;20216;-78
2023/01/30 00:08:56;;;;;;;37.10;19.30;;;;;;;0.17;100.00;99507.19;5086197;28;20264;-78
2023/01/30 00:11:25;;;;;;;37.03;20.97;;;;;;;0.04;100.00;99492.66;5087397;28;20204;-79
2023/01/30 00:13:53;;;;;;;36.73;20.57;;;;;;;0.12;100.00;99482.97;5092315;28;20191;-79
2023/01/30 00:16:23;;;;;;;37.50;20.33;;;;;;;0.13;100.00;99476.03;5112475;28;20187;-79
2023/01/30 00:18:51;;;;;;;35.00;19.10;;;;;;;0.07;100.00;99499.53;5113672;27;20194;-79
2023/01/30 00:21:20;;;;;;;37.97;19.47;;;;;;;0.14;100.00;99473.38;5108463;28;20194;-79
2023/01/30 00:23:48;;;;;;;37.77;20.47;;;;;;;0.18;100.00;99472.44;5108738;28;20248;-79
2023/01/30 00:26:17;;;;;;;37.70;20.13;;;;;;;0.03;100.00;99488.34;5108701;28;20187;-79
2023/01/30 00:28:46;;;;;;;33.43;19.60;;;;;;;0.09;100.00;99487.34;5113439;28;20206;-78
2023/01/30 00:31:15;;;;;;;38.00;20.93;;;;;;;-0.01;100.00;99473.63;5114662;27;20206;-79
2023/01/30 00:33:46;;;;;;;35.97;19.97;;;;;;;-0.08;100.00;99467.69;5109854;28;20274;-78
2023/01/30 00:36:14;;;;;;;38.13;20.27;;;;;;;-0.03;100.00;99460.63;5111959;28;20191;-79
2023/01/30 00:38:43;;;;;;;38.37;21.00;;;;;;;-0.14;100.00;99446.94;5115010;27;20199;-78
2023/01/30 00:41:12;;;;;;;38.47;20.93;;;;;;;-0.16;100.00;99440.06;5109714;28;20232;-78
2023/01/30 00:49:16;;;;;;;39.97;20.47;;;;;;;-0.20;100.00;99467.84;5115453;27;20248;-79
2023/01/30 00:51:45;;;;;;;42.17;22.17;;;;;;;-0.09;100.00;99458.16;5113388;28;20243;-78
2023/01/30 00:54:13;;;;;;;39.03;21.97;;;;;;;-0.39;100.00;99453.41;5113084;27;20207;-79
2023/01/30 00:56:42;;;;;;;44.37;22.80;;;;;;;-0.11;100.00;99444.28;5110243;28;20197;-79
2023/01/30 00:59:10;;;;;;;44.27;23.70;;;;;;;-0.11;100.00;99428.66;5103798;28;20191;-79
2023/01/30 01:01:39;;;;;;;41.50;21.90;;;;;;;0.12;100.00;99424.84;5107517;28;20194;-79
2023/01/30 01:04:09;;;;;;;43.03;23.23;;;;;;;0.08;100.00;99416.19;5112449;28;20219;-78
2023/01/30 01:06:39;;;;;;;38.23;20.70;;;;;;;0.06;100.00;99425.78;5112481;27;20264;-79
2023/01/30 01:09:07;;;;;;;41.37;22.63;;;;;;;-0.01;100.00;99404.19;5113062;28;20202;-79
2023/01/30 01:11:36;;;;;;;39.63;21.40;;;;;;;0.06;100.00;99410.16;5112445;28;20194;-78
2023/01/30 01:14:06;;;;;;;40.53;21.77;;;;;;;0.11;100.00;99408.34;5064857;28;20430;-79
2023/01/30 01:16:35;;;;;;;41.00;22.40;;;;;;;0.22;100.00;99410.75;5067864;28;20600;-78
2023/01/30 01:19:07;;;;;;;41.57;23.23;;;;;;;-0.02;100.00;99432.84;5069565;28;20211;-78
2023/01/30 01:21:36;;;;;;;37.70;20.80;;;;;;;0.25;100.00;99435.00;5071252;28;20196;-79
2023/01/30 01:24:13;;;;;;;40.03;21.27;;;;;;;0.22;100.00;99429.00;5033166;28;20196;-79
2023/01/30 01:26:42;;;;;;;38.73;22.13;;;;;;;0.20;100.00;99434.22;5067787;28;20215;-79
2023/01/30 01:29:12;;;;;;;37.13;21.27;;;;;;;0.41;100.00;99425.16;5053431;28;20345;-79
2023/01/30 01:31:41;;;;;;;39.73;21.77;;;;;;;0.20;100.00;99416.00;5078681;28;20255;-79
2023/01/30 01:34:10;;;;;;;39.77;21.23;;;;;;;0.40;100.00;99402.59;5110802;28;20187;-79
2023/01/30 01:36:39;;;;;;;41.73;21.80;;;;;;;0.36;100.00;99392.25;5105464;28;20282;-78
2023/01/30 01:41:00;;;;;;;39.10;21.83;;;;;;;0.36;100.00;99397.47;5108599;28;20206;-79
2023/01/30 01:42:16;;;;;;;37.67;20.50;;;;;;;0.41;100.00;99377.41;5112614;28;20279;-79
2023/01/30 01:45:18;;;;;;;37.70;20.73;;;;;;;0.38;100.00;99380.06;5112491;28;20244;-79
2023/01/30 01:47:56;;;;;;;37.40;20.97;;;;;;;0.50;100.00;99372.03;5091551;28;20268;-78
2023/01/30 01:50:28;;;;;;;38.47;20.83;;;;;;;0.43;100.00;99366.06;5107790;28;20207;-79
2023/01/30 01:52:59;;;;;;;41.60;20.43;;;;;;;0.44;100.00;99367.78;5109204;28;20245;-79
2023/01/30 01:55:30;;;;;;;41.13;21.13;;;;;;;0.41;100.00;99351.34;5113357;28;20201;-79
2023/01/30 01:58:03;;;;;;;40.33;21.13;;;;;;;0.42;100.00;99353.06;5107648;28;20195;-78
2023/01/30 02:00:32;;;;;;;37.00;20.67;;;;;;;0.52;100.00;99363.28;5073594;28;20656;-79
2023/01/30 02:03:05;;;;;;;37.10;20.37;;;;;;;0.52;100.00;99370.22;5112509;28;20191;-79
2023/01/30 02:05:37;;;;;;;36.27;20.40;;;;;;;0.52;100.00;99352.84;5109062;28;20230;-79
2023/01/30 02:08:09;;;;;;;38.93;20.47;;;;;;;0.63;100.00;99349.16;5109264;28;20211;-79
2023/01/30 02:10:49;;;;;;;36.60;20.67;;;;;;;0.70;100.00;99348.16;5112490;28;20187;-79
2023/01/30 02:13:18;;;;;;;37.27;21.07;;;;;;;0.49;100.00;99350.31;5111428;28;20199;-78
2023/01/30 02:15:49;;;;;;;37.40;21.10;;;;;;;0.57;100.00;99345.78;5102348;28;20203;-78
2023/01/30 02:18:19;;;;;;;34.10;19.17;;;;;;;0.61;100.00;99348.34;5113144;28;20196;-78
2023/01/30 02:21:06;;;;;;;37.80;20.03;;;;;;;0.68;100.00;99344.72;5110911;28;20220;-78
2023/01/30 02:24:14;;;;;;;35.17;19.20;;;;;;;0.65;100.00;99339.56;5110983;28;20248;-79
2023/01/30 02:27:15;;;;;;;35.63;19.60;;;;;;;0.74;100.00;99340.22;5112172;28;20260;-79
2023/01/30 02:30:25;;;;;;;36.77;19.70;;;;;;;0.62;100.00;99339.63;5116207;28;20372;-78
2023/01/30 02:33:07;;;;;;;37.00;20.00;;;;;;;0.73;100.00;99342.88;5118870;28;20222;-78
2023/01/30 02:35:43;;;;;;;38.43;19.57;;;;;;;0.68;100.00;99332.56;5068849;28;20192;-79
2023/01/30 02:38:28;;;;;;;34.17;19.27;;;;;;;0.64;100.00;99343.06;5067967;28;20203;-78
2023/01/30 02:41:08;;;;;;;36.27;19.67;;;;;;;0.73;100.00;99335.91;5071346;28;20196;-79
2023/01/30 02:43:44;;;;;;;33.43;18.87;;;;;;;0.64;100.00;99338.69;5071203;28;20184;-79
2023/01/30 02:46:19;;;;;;;35.60;19.37;;;;;;;0.62;100.00;99344.84;5066385;28;20299;-79
2023/01/30 02:48:55;;;;;;;37.10;19.80;;;;;;;0.72;100.00;99343.75;5069894;28;20230;-79
2023/01/30 02:51:28;;;;;;;35.27;18.17;;;;;;;0.71;100.00;99331.63;5068143;28;20204;-78
2023/01/30 02:53:57;;;;;;;38.10;19.60;;;;;;;0.71;100.00;99327.25;5069497;28;20200;-78
2023/01/30 02:56:25;;;;;;;32.07;19.50;;;;;;;0.71;100.00;99336.84;5065957;28;20197;-79
2023/01/30 02:59:01;;;;;;;32.50;18.00;;;;;;;0.97;100.00;99328.47;5070131;28;20208;-79
2023/01/30 03:01:53;;;;;;;33.33;16.87;;;;;;;1.11;100.00;99318.56;5111287;28;20244;-78
2023/01/30 03:04:37;;;;;;;29.90;16.63;;;;;;;1.35;100.00;99299.72;5094799;28;20224;-78
2023/01/30 03:07:20;;;;;;;34.50;17.80;;;;;;;1.34;100.00;99313.63;5092703;28;20199;-79
2023/01/30 03:09:56;;;;;;;30.27;18.00;;;;;;;1.17;100.00;99315.81;5094679;28;20226;-79
2023/01/30 03:12:36;;;;;;;31.40;17.23;;;;;;;1.23;100.00;99289.56;5094801;28;20244;-79
2023/01/30 03:15:12;;;;;;;29.23;16.70;;;;;;;1.25;100.00;99284.31;5091489;28;20203;-79
2023/01/30 03:17:45;;;;;;;31.77;18.00;;;;;;;1.17;100.00;99286.25;5094823;28;20195;-79
2023/01/30 03:20:16;;;;;;;31.10;17.60;;;;;;;1.18;100.00;99285.38;5091336;28;20199;-78
2023/01/30 03:22:46;;;;;;;28.87;15.57;;;;;;;1.35;100.00;99283.19;5054947;28;20200;-78
2023/01/30 03:25:20;;;;;;;26.83;15.03;;;;;;;1.56;100.00;99298.31;5092877;28;20192;-78
2023/01/30 03:27:51;;;;;;;28.17;16.63;;;;;;;1.61;100.00;99287.75;5086562;28;20195;-78
2023/01/30 03:30:20;;;;;;;28.20;16.23;;;;;;;1.48;100.00;99283.75;5092840;28;20297;-79
2023/01/30 03:32:49;;;;;;;32.33;17.50;;;;;;;1.45;100.00;99276.88;5094194;28;20195;-79
2023/01/30 03:35:18;;;;;;;30.43;18.03;;;;;;;1.30;100.00;99285.91;5093123;28;20352;-79
2023/01/30 03:37:48;;;;;;;30.37;17.83;;;;;;;1.23;100.00;99286.94;5094128;28;20241;-79
2023/01/30 03:40:17;;;;;;;28.17;15.50;;;;;;;1.57;100.00;99281.75;5085223;28;20200;-79
2023/01/30 03:42:46;;;;;;;28.83;17.87;;;;;;;1.46;100.00;99270.75;5094086;28;20188;-79
2023/01/30 03:45:15;;;;;;;29.43;17.90;;;;;;;1.44;100.00;99275.13;5091135;28;20191;-78
2023/01/30 03:47:45;;;;;;;29.53;17.47;;;;;;;1.31;100.00;99279.81;5092866;28;20202;-79
2023/01/30 03:50:14;;;;;;;29.23;16.40;;;;;;;1.33;100.00;99278.00;5087910;28;20302;-79
2023/01/30 03:52:44;;;;;;;26.87;16.57;;;;;;;1.37;100.00;99279.66;5092789;28;20365;-78
2023/01/30 03:55:13;;;;;;;33.20;16.50;;;;;;;1.44;100.00;99268.16;5093747;28;20234;-78
2023/01/30 03:57:42;;;;;;;31.47;16.97;;;;;;;1.42;100.00;99267.34;5084407;28;20207;-79
2023/01/30 04:00:12;;;;;;;30.37;17.03;;;;;;;1.46;100.00;99255.09;5095136;27;20199;-78
2023/01/30 04:02:41;;;;;;;33.13;16.80;;;;;;;1.54;100.00;99258.31;5087913;28;20200;-78
2023/01/30 04:05:10;;;;;;;27.30;15.87;;;;;;;1.46;100.00;99238.56;5088479;28;20217;-78
2023/01/30 04:07:38;;;;;;;29.53;16.00;;;;;;;1.56;100.00;99240.91;5091757;28;20206;-78
2023/01/30 04:10:14;;;;;;;29.70;15.40;;;;;;;1.53;100.00;99238.34;5087044;28;20223;-78
2023/01/30 04:12:42;;;;;;;29.73;16.00;;;;;;;1.66;100.00;99225.84;5090377;28;20191;-79
2023/01/30 04:15:12;;;;;;;31.70;17.40;;;;;;;1.68;100.00;99221.44;5092488;28;20225;-78
2023/01/30 04:17:43;;;;;;;32.90;17.33;;;;;;;1.32;100.00;99220.66;5091193;28;20188;-78
2023/01/30 04:20:12;;;;;;;31.00;17.03;;;;;;;1.34;100.00;99213.63;5093549;28;20192;-79
2023/01/30 04:22:40;;;;;;;30.70;16.27;;;;;;;1.37;100.00;99201.38;5088643;28;20196;-79
2023/01/30 04:25:10;;;;;;;31.67;16.70;;;;;;;1.53;100.00;99212.25;5086869;28;20206;-78
2023/01/30 04:27:40;;;;;;;25.60;15.27;;;;;;;1.56;100.00;99208.72;5090878;28;20192;-78
2023/01/30 04:30:10;;;;;;;32.97;18.27;;;;;;;1.56;100.00;99206.13;5091432;28;20215;-79
2023/01/30 04:32:38;;;;;;;31.23;16.30;;;;;;;1.54;100.00;99208.75;5083771;28;20222;-78
2023/01/30 04:35:09;;;;;;;27.80;15.80;;;;;;;1.57;100.00;99206.06;5087073;28;20199;-79
2023/01/30 04:37:38;;;;;;;33.57;17.33;;;;;;;1.58;100.00;99213.00;5091574;28;20374;-78
2023/01/30 04:40:07;;;;;;;30.23;16.83;;;;;;;1.58;100.00;99207.78;5089180;28;20207;-78
2023/01/30 04:42:37;;;;;;;30.80;17.23;;;;;;;1.51;100.00;99203.63;5089164;28;20196;-79
2023/01/30 04:45:07;;;;;;;29.27;16.70;;;;;;;1.61;100.00;99191.16;5083830;28;20286;-79
2023/01/30 04:47:35;;;;;;;33.03;17.83;;;;;;;1.50;100.00;99186.25;5092558;28;20188;-79
2023/01/30 04:50:06;;;;;;;32.43;17.17;;;;;;;1.61;100.00;99183.34;5085118;28;20219;-79
2023/01/30 04:52:35;;;;;;;33.57;17.33;;;;;;;1.68;100.00;99182.28;5092203;28;20199;-78
2023/01/30 04:55:06;;;;;;;30.57;17.10;;;;;;;1.49;100.00;99197.59;5090334;28;20195;-79
2023/01/30 04:57:35;;;;;;;34.13;17.87;;;;;;;1.53;100.00;99174.84;5057685;28;20195;-79
2023/01/30 05:00:08;;;;;;;35.03;18.03;;;;;;;1.59;100.00;99174.69;5088097;28;20194;-79
2023/01/30 05:02:36;;;;;;;30.93;16.30;;;;;;;1.64;100.00;99178.91;5091008;28;20196;-80
2023/01/30 05:05:05;;;;;;;31.87;17.73;;;;;;;1.53;100.00;99162.66;5094874;27;20311;-79
2023/01/30 05:07:35;;;;;;;29.10;16.57;;;;;;;1.70;100.00;99164.81;5084205;28;20683;-79
2023/01/30 05:10:05;;;;;;;27.13;16.10;;;;;;;1.66;100.00;99160.59;5087869;28;20211;-79
2023/01/30 05:12:33;;;;;;;27.13;16.00;;;;;;;1.72;100.00;99156.03;5091743;28;20203;-79
2023/01/30 05:15:01;;;;;;;26.13;16.07;;;;;;;1.89;100.00;99157.31;5089778;28;20321;-79
2023/01/30 05:17:31;;;;;;;24.03;15.87;;;;;;;2.00;100.00;99147.41;5090599;28;20272;-78
2023/01/30 05:20:01;;;;;;;29.30;15.83;;;;;;;1.98;100.00;99144.84;5086639;28;20195;-79
2023/01/30 05:22:29;;;;;;;28.77;18.33;;;;;;;1.96;100.00;99133.59;5089998;28;20261;-79
2023/01/30 05:24:58;;;;;;;30.87;18.47;;;;;;;2.00;100.00;99137.81;5090207;28;20184;-79
2023/01/30 05:27:27;;;;;;;27.33;16.80;;;;;;;2.01;100.00;99142.13;5088965;28;20191;-78
2023/01/30 05:29:55;;;;;;;29.37;17.17;;;;;;;2.01;100.00;99142.13;5090176;28;20211;-78
2023/01/30 05:32:24;;;;;;;30.53;18.13;;;;;;;2.04;100.00;99141.22;5084840;28;20211;-78
2023/01/30 05:34:54;;;;;;;26.77;17.20;;;;;;;2.08;100.00;99147.19;5086094;28;20192;-78
2023/01/30 05:37:23;;;;;;;28.00;17.13;;;;;;;2.11;100.00;99139.25;5088412;28;20609;-78
2023/01/30 05:39:51;;;;;;;28.97;16.67;;;;;;;2.07;100.00;99130.66;5085427;28;20255;-78
2023/01/30 05:42:20;;;;;;;32.60;17.73;;;;;;;2.05;100.00;99126.38;5089405;28;20203;-78
2023/01/30 05:44:51;;;;;;;26.17;17.27;;;;;;;2.11;100.00;99116.59;5088173;28;20196;-78
2023/01/30 05:47:19;;;;;;;30.33;17.20;;;;;;;2.11;100.00;99113.97;5088201;28;20226;-78
2023/01/30 05:49:48;;;;;;;27.97;18.27;;;;;;;2.12;100.00;99114.84;5090056;28;20253;-78
2023/01/30 05:52:18;;;;;;;26.63;17.37;;;;;;;2.22;100.00;99124.97;5079008;28;20200;-78
2023/01/30 05:54:46;;;;;;;26.60;14.97;;;;;;;2.23;100.00;99111.00;5090043;28;20219;-78
2023/01/30 05:57:15;;;;;;;26.50;15.50;;;;;;;2.30;100.00;99103.81;5084823;28;20283;-78
2023/01/30 05:59:45;;;;;;;28.37;16.20;;;;;;;2.32;100.00;99112.47;5082912;28;20210;-78
2023/01/30 06:02:13;;;;;;;26.73;15.97;;;;;;;2.31;100.00;99105.53;5089233;28;20188;-78
2023/01/30 06:04:42;;;;;;;27.00;17.43;;;;;;;2.28;100.00;99106.47;5090004;28;20223;-78
2023/01/30 06:07:11;;;;;;;26.90;16.33;;;;;;;2.33;100.00;99105.50;5087396;28;20269;-78
2023/01/30 06:09:41;;;;;;;25.80;16.43;;;;;;;2.32;100.00;99091.59;5094090;28;20273;-80
2023/01/30 06:12:10;;;;;;;29.67;17.00;;;;;;;2.34;100.00;99081.94;5090138;28;20654;-78
2023/01/30 06:14:40;;;;;;;26.87;17.13;;;;;;;2.37;100.00;99073.97;5094694;28;20240;-78
2023/01/30 06:17:08;;;;;;;24.17;16.87;;;;;;;2.41;100.00;99069.50;5093239;28;20253;-78
2023/01/30 06:19:36;;;;;;;25.37;14.73;;;;;;;2.47;100.00;99098.91;5092160;28;20651;-78
2023/01/30 06:22:05;;;;;;;26.37;14.27;;;;;;;2.62;100.00;99107.19;5094233;28;20188;-78
2023/01/30 06:24:33;;;;;;;25.40;15.43;;;;;;;2.53;100.00;99109.19;5050731;28;20197;-78
2023/01/30 06:27:03;;;;;;;24.17;15.07;;;;;;;2.50;100.00;99118.88;5048654;28;20637;-78
2023/01/30 06:29:32;;;;;;;24.00;15.93;;;;;;;2.52;100.00;99122.31;5022862;28;20201;-78
2023/01/30 06:32:00;;;;;;;24.20;15.70;;;;;;;2.53;100.00;99110.94;5007780;28;20285;-78
2023/01/30 06:34:28;;;;;;;24.30;14.73;;;;;;;2.58;100.00;99111.63;5012822;28;20198;-78
2023/01/30 06:36:57;;;;;;;23.70;15.07;;;;;;;2.54;100.00;99105.66;5010747;28;20194;-78
2023/01/30 06:39:25;;;;;;;23.33;14.13;;;;;;;2.57;100.00;99123.84;5010624;28;20330;-78
2023/01/30 06:41:53;;;;;;;23.33;14.67;;;;;;;2.58;100.00;99116.84;5009638;28;20257;-78
2023/01/30 06:44:23;;;;;;;21.93;13.37;;;;;;;2.68;100.00;99107.81;5007631;28;20202;-78
2023/01/30 06:46:52;;;;;;;22.17;15.13;;;;;;;2.62;100.00;99122.88;5011917;28;20206;-78
2023/01/30 06:49:21;;;;;;;23.27;15.77;;;;;;;2.63;100.00;99111.50;5036141;28;20193;-78
2023/01/30 06:51:50;;;;;;;21.67;12.87;;;;;;;2.68;100.00;99115.66;5042122;28;20216;-79
2023/01/30 06:54:19;;;;;;;21.87;13.00;;;;;;;2.66;100.00;99114.84;5050119;28;20698;-78
2023/01/30 06:56:47;;;;;;;20.23;14.77;;;;;;;2.65;100.00;99107.91;5062333;28;20191;-78
2023/01/30 06:59:16;;;;;;;27.10;14.13;;;;;;;2.67;100.00;99115.72;5094821;28;20283;-78
2023/01/30 07:01:46;;;;;;;22.10;13.70;;;;;;;2.68;100.00;99120.88;5092292;28;20204;-78
2023/01/30 07:04:15;;;;;;;22.23;13.03;;;;;;;2.79;100.00;99136.22;5045714;28;20220;-78
2023/01/30 07:06:45;;;;;;;19.60;11.83;;;;;;;2.78;100.00;99139.75;5049170;28;20277;-79
2023/01/30 07:09:14;;;;;;;21.63;14.30;;;;;;;2.64;100.00;99145.44;5047407;28;20235;-79
2023/01/30 07:11:46;;;;;;;22.37;13.73;;;;;;;2.68;100.00;99139.19;5049306;28;20265;-78
2023/01/30 07:14:14;;;;;;;22.10;16.47;;;;;;;2.59;100.00;99132.50;5045851;28;20208;-78
2023/01/30 07:16:45;;;;;;;20.87;12.43;;;;;;;2.71;100.00;99130.41;5041499;28;20204;-78
2023/01/30 07:19:15;;;;;;;22.77;13.20;;;;;;;2.68;100.00;99128.72;5042491;28;20231;-78
2023/01/30 07:21:44;;;;;;;23.17;14.57;;;;;;;2.65;100.00;99128.00;5060617;28;20202;-78
2023/01/30 07:24:12;;;;;;;20.67;14.33;;;;;;;2.65;100.00;99120.13;5092376;28;20184;-78
2023/01/30 07:26:41;;;;;;;23.17;13.37;;;;;;;2.70;100.00;99132.19;5054628;28;20203;-78
2023/01/30 07:29:15;;;;;;;19.50;13.30;;;;;;;2.75;100.00;99161.63;5090868;28;20415;-78
2023/01/30 07:31:44;;;;;;;20.33;12.77;;;;;;;2.74;100.00;99143.38;5090442;28;20212;-77
2023/01/30 07:34:12;;;;;;;19.73;12.43;;;;;;;2.75;100.00;99147.69;5094434;28;20279;-77
2023/01/30 07:36:42;;;;;;;18.47;12.20;;;;;;;2.80;100.00;99153.66;5091528;28;20199;-77
2023/01/30 07:39:11;;;;;;;17.20;11.50;;;;;;;2.82;100.00;99150.06;5085336;28;20249;-78
2023/01/30 07:41:41;;;;;;;16.57;12.47;;;;;;;2.84;100.00;99139.56;5089994;28;20199;-77
2023/01/30 07:44:09;;;;;;;17.03;12.23;;;;;;;2.83;100.00;99141.31;5089624;28;20269;-78
2023/01/30 07:46:38;;;;;;;15.43;11.83;;;;;;;2.79;100.00;99131.00;5089903;28;20669;-78
2023/01/30 07:49:09;;;;;;;15.57;11.70;;;;;;;2.82;100.00;99123.06;5087262;28;20192;-77
2023/01/30 07:51:37;;;;;;;20.73;15.03;;;;;;;2.82;100.00;99133.53;5094058;28;20795;-77
2023/01/30 07:54:07;;;;;;;14.60;10.83;;;;;;;2.85;100.00;99128.19;5091220;28;20619;-77
2023/01/30 07:56:36;;;;;;;15.53;11.57;;;;;;;2.85;100.00;99115.09;5089483;28;20320;-77
2023/01/30 07:59:05;;;;;;;17.03;11.53;;;;;;;2.80;100.00;99101.34;5092410;28;20222;-78
2023/01/30 08:01:34;;;;;;;13.90;10.63;;;;;;;2.84;100.00;99105.56;5088338;28;20322;-77
2023/01/30 08:04:02;;;;;;;14.60;10.97;;;;;;;2.84;100.00;99097.72;5092334;28;20227;-77
2023/01/30 08:06:31;;;;;;;14.80;9.57;;;;;;;2.91;100.00;99096.59;5092596;28;20210;-77
2023/01/30 08:08:59;;;;;;;14.27;10.40;;;;;;;2.87;100.00;99097.59;5089663;28;20199;-77
2023/01/30 08:11:30;;;;;;;14.90;9.40;;;;;;;2.94;100.00;99112.19;5093442;28;20211;-78
2023/01/30 08:13:58;;;;;;;13.10;8.27;;;;;;;3.03;100.00;99104.03;5087006;28;20194;-77
2023/01/30 08:16:26;;;;;;;10.37;7.63;;;;;;;3.00;100.00;99105.91;5092257;28;20211;-78
2023/01/30 08:18:55;;;;;;;11.17;7.67;;;;;;;2.93;100.00;99092.16;5093164;28;20199;-77
2023/01/30 08:21:23;;;;;;;12.00;7.83;;;;;;;3.01;100.00;99100.63;5088313;28;20399;-78
2023/01/30 08:23:52;;;;;;;10.57;7.93;;;;;;;2.95;100.00;99097.34;5092758;28;20183;-78
2023/01/30 08:26:20;;;;;;;10.70;7.47;;;;;;;3.05;100.00;99098.72;5083662;28;20199;-79
2023/01/30 08:28:50;;;;;;;10.90;7.30;;;;;;;3.08;100.00;99098.63;5092354;28;20218;-78
2023/01/30 08:31:18;;;;;;;9.80;7.33;;;;;;;3.06;100.00;99108.28;5092058;28;20207;-77
2023/01/30 08:33:48;;;;;;;10.00;7.03;;;;;;;3.07;100.00;99115.22;5092857;28;20226;-78
2023/01/30 08:36:17;;;;;;;9.60;6.47;;;;;;;3.08;100.00;99106.47;5093083;28;20184;-77
2023/01/30 08:38:47;;;;;;;9.53;6.07;;;;;;;3.13;100.00;99092.31;5092889;28;20192;-78
2023/01/30 08:41:16;;;;;;;10.10;7.20;;;;;;;2.91;100.00;99099.22;5086147;28;20202;-78
2023/01/30 08:43:44;;;;;;;10.17;6.90;;;;;;;2.98;100.00;99105.94;5048329;28;20189;-78
2023/01/30 08:46:16;;;;;;;8.67;6.27;;;;;;;3.02;100.00;99093.63;5046832;28;20588;-78
2023/01/30 08:48:45;;;;;;;12.73;7.30;;;;;;;2.89;100.00;99098.38;5042814;28;20201;-78
2023/01/30 08:51:18;;;;;;;11.40;7.43;;;;;;;2.90;100.00;99096.66;5044022;28;20239;-78
2023/01/30 08:53:46;;;;;;;10.03;7.60;;;;;;;2.91;100.00;99096.59;4987613;28;20261;-78
2023/01/30 08:56:15;;;;;;;8.97;7.53;;;;;;;2.93;100.00;99093.94;4983716;28;20205;-78
2023/01/30 08:58:45;;;;;;;10.60;7.50;;;;;;;2.92;100.00;99093.06;4991413;28;20194;-78
2023/01/30 09:01:16;;;;;;;11.07;6.40;;;;;;;3.00;100.00;99080.59;4989935;28;20191;-78
2023/01/30 09:03:44;;;;;;;10.53;7.17;;;;;;;2.91;100.00;99091.38;4988099;28;20191;-78
2023/01/30 09:06:13;;;;;;;11.07;6.60;;;;;;;3.07;100.00;99078.59;4991039;28;20287;-78
2023/01/30 09:08:42;;;;;;;10.97;7.13;;;;;;;3.05;100.00;99070.81;5024974;28;20204;-78
2023/01/30 09:11:11;;;;;;;9.10;7.17;;;;;;;3.02;100.00;99094.47;5046983;28;20680;-78
2023/01/30 09:13:42;;;;;;;8.53;5.80;;;;;;;3.17;100.00;99095.69;5047786;28;20640;-78
2023/01/30 09:16:12;;;;;;;11.17;5.43;;;;;;;3.16;100.00;99071.28;5046921;28;20201;-78
2023/01/30 09:18:44;;;;;;;10.40;6.03;;;;;;;3.21;100.00;99091.22;5074450;28;20254;-77
2023/01/30 09:21:14;;;;;;;5.60;4.67;;;;;;;3.21;100.00;99062.44;5089790;28;20200;-78
2023/01/30 09:23:43;;;;;;;8.90;6.10;;;;;;;3.18;100.00;99060.75;5093234;28;20195;-78
2023/01/30 09:26:11;;;;;;;8.53;5.27;;;;;;;3.17;100.00;99057.28;5091001;28;20192;-79
2023/01/30 09:28:40;;;;;;;7.70;5.57;;;;;;;3.12;100.00;99064.47;5089858;28;20321;-78
2023/01/30 09:31:09;;;;;;;7.23;4.87;;;;;;;3.22;100.00;99059.75;5092795;28;20202;-78
2023/01/30 09:33:37;;;;;;;7.63;5.53;;;;;;;3.19;100.00;99077.34;5090375;28;20276;-80
2023/01/30 09:36:09;;;;;;;6.77;4.47;;;;;;;3.30;100.00;99073.41;5091081;28;20228;-78
2023/01/30 09:38:38;;;;;;;7.63;5.13;;;;;;;3.22;100.00;99077.22;5097595;28;20203;-78
2023/01/30 09:41:32;;;;;;;8.73;5.00;;;;;;;3.26;100.00;99084.03;5036384;28;20193;-79
2023/01/30 09:44:22;;;;;;;5.97;3.97;;;;;;;3.29;100.00;99081.34;5031034;28;20200;-79
2023/01/30 09:47:02;;;;;;;10.63;7.47;;;;;;;3.25;100.00;99090.19;5028100;28;20198;-79
2023/01/30 09:49:43;;;;;;;11.23;9.03;;;;;;;3.25;100.00;99088.41;5035903;28;20754;-78
2023/01/30 09:52:23;;;;;;;32.50;19.30;;;;;;;3.12;100.00;99089.78;5030230;28;20754;-78
2023/01/30 09:54:56;;;;;;;34.23;19.13;;;;;;;3.06;100.00;99085.59;5034025;28;20224;-78
2023/01/30 09:57:25;;;;;;;8.10;5.07;;;;;;;3.14;100.00;99087.94;5027196;28;20194;-78
2023/01/30 09:59:58;;;;;;;7.30;5.00;;;;;;;3.16;100.00;99086.13;5073892;28;20208;-79
2023/01/30 10:02:44;;;;;;;10.67;7.33;;;;;;;3.12;100.00;99088.00;5096165;28;20196;-78
2023/01/30 10:05:14;;;;;;;8.43;7.03;;;;;;;3.03;100.00;99085.72;5088195;28;20215;-79
2023/01/30 10:10:48;;;;;;;5.90;4.80;;;;;;;3.08;100.00;99098.63;5110520;27;20559;-80
2023/01/30 10:13:59;;;;;;;5.77;4.23;;;;;;;3.14;100.00;99108.88;5110495;28;20305;-80
2023/01/30 10:16:32;;;;;;;3.97;2.80;;;;;;;3.24;100.00;99114.66;5108928;28;20195;-79
2023/01/30 10:19:23;;;;;;;4.40;3.20;;;;;;;3.21;100.00;99126.09;5108444;28;20365;-79
2023/01/30 10:22:12;;;;;;;4.90;3.10;;;;;;;3.22;100.00;99121.72;5109163;28;20198;-80
2023/01/30 10:24:49;;;;;;;3.83;3.13;;;;;;;3.19;100.00;99112.22;5110083;28;20194;-79
2023/01/30 10:27:21;;;;;;;6.93;3.17;;;;;;;3.25;100.00;99109.34;5109936;28;20194;-79
2023/01/30 10:29:55;;;;;;;4.47;3.30;;;;;;;3.25;100.00;99113.75;5108066;28;20214;-79
2023/01/30 10:32:30;;;;;;;5.23;3.50;;;;;;;3.30;100.00;99103.97;5106120;28;20278;-81
2023/01/30 10:35:05;;;;;;;4.27;3.23;;;;;;;3.48;100.00;99100.72;5068302;28;20252;-80
2023/01/30 10:37:42;;;;;;;10.23;8.07;;;;;;;3.68;100.00;99098.22;5107394;28;20194;-79
2023/01/30 10:40:23;;;;;;;5.43;3.47;;;;;;;3.82;100.00;99092.44;5112476;28;20248;-79
2023/01/30 10:43:01;;;;;;;6.27;3.60;;;;;;;3.99;100.00;99100.53;5113899;28;20256;-79
2023/01/30 10:45:37;;;;;;;6.60;3.63;;;;;;;3.96;100.00;99097.19;5108406;28;20190;-82
2023/01/30 10:48:22;;;;;;;4.50;3.13;;;;;;;3.88;100.00;99089.59;5109724;28;20193;-79
2023/01/30 10:51:22;;;;;;;3.80;3.40;;;;;;;3.77;100.00;99077.81;5110443;28;20187;-79
2023/01/30 10:53:55;;;;;;;6.60;3.20;;;;;;;3.83;100.00;99088.91;5109557;28;20191;-79
2023/01/30 10:56:31;;;;;;;3.70;2.93;;;;;;;3.86;100.00;99086.19;5109219;28;20187;-80
2023/01/30 10:59:13;;;;;;;5.53;4.70;;;;;;;3.84;100.00;99077.50;5107314;28;20191;-79
2023/01/30 11:01:45;;;;;;;5.57;3.73;;;;;;;3.96;100.00;99086.69;5109451;28;20195;-80
2023/01/30 11:04:25;;;;;;;7.23;5.00;;;;;;;3.95;100.00;99085.81;5106654;28;20271;-80
2023/01/30 11:06:57;;;;;;;6.10;4.47;;;;;;;3.97;100.00;99088.41;5102264;28;20657;-79
2023/01/30 11:09:26;;;;;;;7.73;4.57;;;;;;;4.09;100.00;99073.97;5107455;28;20231;-79
2023/01/30 11:11:55;;;;;;;6.53;3.87;;;;;;;4.12;100.00;99082.53;5109066;28;20187;-79
2023/01/30 11:14:25;;;;;;;5.27;3.83;;;;;;;3.99;100.00;99079.56;5107351;28;20199;-79
2023/01/30 11:16:56;;;;;;;8.50;4.00;;;;;;;4.08;100.00;99080.97;5105081;28;20253;-80
2023/01/30 11:19:26;;;;;;;6.50;4.00;;;;;;;4.12;100.00;99079.06;5106876;28;20268;-80
2023/01/30 11:21:56;;;;;;;7.80;4.20;;;;;;;4.08;100.00;99083.59;5093639;28;20195;-80
2023/01/30 11:24:30;;;;;;;7.60;4.20;;;;;;;4.15;100.00;99078.94;5090494;28;20218;-79
2023/01/30 11:27:10;;;;;;;6.60;3.77;;;;;;;4.25;100.00;99086.41;5094009;28;20287;-79
2023/01/30 11:29:40;;;;;;;6.77;4.40;;;;;;;4.23;100.00;99093.47;5092819;28;20223;-79
2023/01/30 11:32:15;;;;;;;8.37;3.93;;;;;;;4.48;100.00;99101.22;5093296;28;20273;-80
2023/01/30 11:34:44;;;;;;;5.80;3.90;;;;;;;4.53;100.00;99091.38;5094462;28;20282;-79
2023/01/30 11:37:15;;;;;;;6.20;4.30;;;;;;;4.58;100.00;99099.94;5095111;28;20191;-79
2023/01/30 11:39:52;;;;;;;6.40;4.63;;;;;;;4.65;100.00;99105.78;5090576;28;20224;-80
2023/01/30 11:42:25;;;;;;;7.83;4.37;;;;;;;4.70;100.00;99106.44;5093235;28;20199;-79
2023/01/30 11:44:59;;;;;;;8.63;4.97;;;;;;;4.75;100.00;99101.88;5094302;28;20206;-79
2023/01/30 11:47:50;;;;;;;7.30;4.17;;;;;;;4.84;100.00;99084.91;5092477;28;20208;-80
2023/01/30 11:50:31;;;;;;;6.43;4.47;;;;;;;4.84;100.00;99083.13;5095953;28;20222;-80
2023/01/30 11:53:20;;;;;;;7.90;5.10;;;;;;;4.74;100.00;99071.31;5095265;28;20191;-80